createdAt,value
2023-04-27T00:01:14.163Z,98009.66
2023-04-27T00:03:46.069Z,98018.44
2023-04-27T00:06:16.801Z,98017.03
2023-04-27T00:08:47.295Z,98014.63
2023-04-27T00:11:17.809Z,98008.13
2023-04-27T00:13:50.926Z,98016.28
2023-04-27T00:16:21.737Z,98007.13
2023-04-27T00:18:52.488Z,98011.97
2023-04-27T00:21:23.538Z,98010.09
2023-04-27T00:23:53.878Z,98014.16
2023-04-27T00:26:24.765Z,98000.97
2023-04-27T00:28:59.274Z,98014.59
2023-04-27T00:31:29.756Z,98012.81
2023-04-27T00:34:00.298Z,98012.06
2023-04-27T00:36:30.813Z,98018.53
2023-04-27T00:39:01.394Z,98017.41
2023-04-27T00:41:32.927Z,98021.03
2023-04-27T00:44:06.152Z,98020.38
2023-04-27T00:46:38.624Z,98027.63
2023-04-27T00:49:09.209Z,98019.03
2023-04-27T00:51:39.744Z,98022.13
2023-04-27T00:54:11.200Z,98018.38
2023-04-27T00:56:41.648Z,98025.06
2023-04-27T00:59:14.988Z,98020.97
2023-04-27T01:01:45.670Z,98017.53
2023-04-27T01:04:17.217Z,98024.59
2023-04-27T01:06:48.166Z,98025.91
2023-04-27T01:09:20.137Z,98017.06
2023-04-27T01:11:53.408Z,98025.84
2023-04-27T01:14:27.601Z,98024.72
2023-04-27T01:16:58.657Z,98033.72
2023-04-27T01:19:29.307Z,98037.69
2023-04-27T01:21:59.792Z,98028.53
2023-04-27T01:24:32.914Z,98026.97
2023-04-27T01:27:04.482Z,98038.06
2023-04-27T01:29:35.013Z,98028.81
2023-04-27T01:32:06.456Z,98031.63
2023-04-27T01:34:37.124Z,98038.00
2023-04-27T01:37:08.142Z,98030.56
2023-04-27T01:39:42.234Z,98031.50
2023-04-27T01:42:12.748Z,98034.78
2023-04-27T01:44:43.800Z,98034.88
2023-04-27T01:47:14.376Z,98032.97
2023-04-27T01:49:44.816Z,98033.44
2023-04-27T01:52:15.616Z,98030.75
2023-04-27T01:54:48.756Z,98030.44
2023-04-27T01:57:19.853Z,98034.78
2023-04-27T01:59:50.399Z,98037.28
2023-04-27T02:02:20.988Z,98034.28
2023-04-27T02:04:51.716Z,98042.88
2023-04-27T02:07:22.952Z,98040.97
2023-04-27T02:09:56.100Z,98040.34
2023-04-27T02:12:26.696Z,98040.78
2023-04-27T02:14:57.407Z,98040.78
2023-04-27T02:17:29.450Z,98047.03
2023-04-27T02:19:59.941Z,98042.75
2023-04-27T02:22:30.932Z,98040.44
2023-04-27T02:25:04.107Z,98049.50
2023-04-27T02:27:34.861Z,98040.59
2023-04-27T02:30:10.418Z,98045.66
2023-04-27T02:32:41.650Z,98044.53
2023-04-27T02:35:13.211Z,98050.47
2023-04-27T02:37:44.115Z,98049.84
2023-04-27T02:40:17.569Z,98053.78
2023-04-27T02:42:48.129Z,98048.81
2023-04-27T02:45:18.945Z,98049.16
2023-04-27T02:47:51.131Z,98062.09
2023-04-27T02:50:21.881Z,98056.59
2023-04-27T02:52:52.379Z,98050.78
2023-04-27T02:55:25.844Z,98063.34
2023-04-27T02:57:56.372Z,98058.31
2023-04-27T03:00:27.197Z,98059.56
2023-04-27T03:02:57.990Z,98067.47
2023-04-27T03:05:32.047Z,98064.34
2023-04-27T03:08:02.756Z,98064.84
2023-04-27T03:10:36.317Z,98066.81
2023-04-27T03:13:06.739Z,98067.59
2023-04-27T03:15:38.083Z,98063.03
2023-04-27T03:18:09.414Z,98069.28
2023-04-27T03:20:39.920Z,98071.75
2023-04-27T03:23:10.391Z,98069.09
2023-04-27T03:25:43.655Z,98071.47
2023-04-27T03:28:14.143Z,98075.06
2023-04-27T03:30:44.704Z,98065.03
2023-04-27T03:33:15.604Z,98076.81
2023-04-27T03:35:46.046Z,98080.81
2023-04-27T03:38:18.079Z,98078.09
2023-04-27T03:40:51.538Z,98087.13
2023-04-27T03:43:22.967Z,98080.13
2023-04-27T03:45:53.557Z,98087.88
2023-04-27T03:48:24.771Z,98084.41
2023-04-27T03:50:57.346Z,98087.13
2023-04-27T03:53:27.888Z,98096.09
2023-04-27T03:56:01.041Z,98096.09
2023-04-27T03:58:31.868Z,98104.31
2023-04-27T04:01:22.448Z,98097.75
2023-04-27T04:03:53.876Z,98100.84
2023-04-27T04:06:24.714Z,98100.00
2023-04-27T04:08:55.692Z,98109.00
2023-04-27T04:11:29.363Z,98104.31
2023-04-27T04:14:02.245Z,98119.97
2023-04-27T04:16:33.426Z,98119.88
2023-04-27T04:19:03.947Z,98110.47
2023-04-27T04:21:34.838Z,98115.47
2023-04-27T04:24:06.204Z,98114.63
2023-04-27T04:26:40.257Z,98119.69
2023-04-27T04:29:11.276Z,98128.25
2023-04-27T04:31:42.427Z,98123.47
2023-04-27T04:34:14.699Z,98123.44
2023-04-27T04:36:45.641Z,98123.25
2023-04-27T04:39:16.668Z,98120.06
2023-04-27T04:41:50.258Z,98123.91
2023-04-27T04:44:21.262Z,98121.72
2023-04-27T04:46:52.123Z,98127.84
2023-04-27T04:49:22.685Z,98130.44
2023-04-27T04:51:53.689Z,98129.56
2023-04-27T04:54:24.150Z,98127.44
2023-04-27T04:56:59.140Z,98128.34
2023-04-27T04:59:31.979Z,98123.44
2023-04-27T05:02:02.546Z,98125.63
2023-04-27T05:04:33.251Z,98126.94
2023-04-27T05:07:04.973Z,98132.50
2023-04-27T05:09:35.551Z,98137.41
2023-04-27T05:12:09.619Z,98139.50
2023-04-27T05:14:40.095Z,98134.78
2023-04-27T05:17:10.789Z,98134.41
2023-04-27T05:19:41.256Z,98123.81
2023-04-27T05:22:11.720Z,98130.13
2023-04-27T05:24:42.259Z,98123.38
2023-04-27T05:27:17.299Z,98117.72
2023-04-27T05:29:47.709Z,98126.78
2023-04-27T05:32:18.226Z,98125.25
2023-04-27T05:34:49.562Z,98121.75
2023-04-27T05:37:20.232Z,98124.53
2023-04-27T05:39:50.948Z,98131.69
2023-04-27T05:42:24.028Z,98122.31
2023-04-27T05:44:54.533Z,98132.25
2023-04-27T05:47:25.580Z,98122.88
2023-04-27T05:49:56.793Z,98122.94
2023-04-27T05:52:31.220Z,98123.06
2023-04-27T05:55:02.255Z,98123.91
2023-04-27T05:57:37.024Z,98124.34
2023-04-27T06:00:12.989Z,98125.56
2023-04-27T06:02:43.528Z,98124.25
2023-04-27T06:05:14.267Z,98123.91
2023-04-27T06:07:44.865Z,98131.19
2023-04-27T06:10:16.641Z,98119.72
2023-04-27T06:12:49.741Z,98121.53
2023-04-27T06:15:20.217Z,98118.94
2023-04-27T06:17:50.920Z,98126.56
2023-04-27T06:20:21.760Z,98115.69
2023-04-27T06:22:52.425Z,98123.66
2023-04-27T06:25:24.461Z,98122.75
2023-04-27T06:28:00.735Z,98127.22
2023-04-27T06:30:31.161Z,98136.38
2023-04-27T06:33:01.756Z,98140.22
2023-04-27T06:35:32.346Z,98140.00
2023-04-27T06:38:03.922Z,98134.91
2023-04-27T06:40:35.722Z,98141.06
2023-04-27T06:43:08.930Z,98136.28
2023-04-27T06:45:39.339Z,98130.34
2023-04-27T06:48:10.052Z,98134.50
2023-04-27T06:50:40.852Z,98126.19
2023-04-27T06:53:11.872Z,98135.09
2023-04-27T06:55:45.597Z,98142.03
2023-04-27T06:58:20.080Z,98143.88
2023-04-27T07:00:51.057Z,98143.72
2023-04-27T07:03:21.355Z,98146.31
2023-04-27T07:05:51.995Z,98144.91
2023-04-27T07:08:22.450Z,98151.97
2023-04-27T07:10:53.502Z,98149.31
2023-04-27T07:13:26.251Z,98140.72
2023-04-27T07:16:01.195Z,98146.03
2023-04-27T07:18:31.701Z,98143.44
2023-04-27T07:21:02.420Z,98151.06
2023-04-27T07:23:32.929Z,98140.13
2023-04-27T07:26:03.513Z,98144.53
2023-04-27T07:28:36.891Z,98146.63
2023-04-27T07:31:08.533Z,98151.66
2023-04-27T07:33:39.017Z,98152.78
2023-04-27T07:36:10.105Z,98150.25
2023-04-27T07:38:40.874Z,98139.75
2023-04-27T07:41:11.331Z,98148.94
2023-04-27T07:43:44.452Z,98148.78
2023-04-27T07:46:15.173Z,98151.91
2023-04-27T07:48:45.857Z,98152.28
2023-04-27T07:51:17.730Z,98157.44
2023-04-27T07:53:48.210Z,98163.63
2023-04-27T07:56:18.652Z,98168.22
2023-04-27T07:58:51.973Z,98160.16
2023-04-27T08:01:22.507Z,98157.84
2023-04-27T08:03:53.208Z,98158.03
2023-04-27T08:06:24.001Z,98157.78
2023-04-27T08:08:56.317Z,98155.22
2023-04-27T08:11:26.770Z,98164.09
2023-04-27T08:13:59.890Z,98156.88
2023-04-27T08:16:31.547Z,98149.97
2023-04-27T08:19:02.081Z,98148.31
2023-04-27T08:21:33.054Z,98149.59
2023-04-27T08:24:03.492Z,98158.97
2023-04-27T08:26:34.012Z,98158.72
2023-04-27T08:29:19.311Z,98159.41
2023-04-27T08:31:57.728Z,98154.19
2023-04-27T08:34:28.632Z,98146.69
2023-04-27T08:36:59.296Z,98148.28
2023-04-27T08:39:32.910Z,98150.41
2023-04-27T08:42:13.632Z,98150.59
2023-04-27T08:44:47.968Z,98148.06
2023-04-27T08:47:23.479Z,98156.34
2023-04-27T08:50:01.978Z,98156.31
2023-04-27T08:52:32.539Z,98148.31
2023-04-27T08:55:03.683Z,98144.63
2023-04-27T08:57:34.266Z,98143.00
2023-04-27T09:00:13.472Z,98144.03
2023-04-27T09:02:50.768Z,98145.47
2023-04-27T09:05:22.161Z,98144.41
2023-04-27T09:08:05.656Z,98142.06
2023-04-27T09:10:48.328Z,98150.78
2023-04-27T09:13:20.180Z,98144.03
2023-04-27T09:15:54.944Z,98139.03
2023-04-27T09:18:30.201Z,98136.66
2023-04-27T09:21:01.071Z,98141.63
2023-04-27T09:23:33.562Z,98140.47
2023-04-27T09:26:08.242Z,98138.81
2023-04-27T09:28:42.950Z,98129.53
2023-04-27T09:31:16.251Z,98133.72
2023-04-27T09:33:48.835Z,98128.81
2023-04-27T09:36:24.463Z,98129.56
2023-04-27T09:38:56.281Z,98130.19
2023-04-27T09:41:29.080Z,98125.44
2023-04-27T09:44:01.908Z,98131.66
2023-04-27T09:46:40.046Z,98140.41
2023-04-27T09:49:11.882Z,98125.59
2023-04-27T09:51:45.017Z,98129.84
2023-04-27T09:54:17.924Z,98114.34
2023-04-27T09:57:03.160Z,98118.66
2023-04-27T09:59:58.684Z,98117.97
2023-04-27T10:02:52.210Z,98109.50
2023-04-27T10:05:49.515Z,98115.66
2023-04-27T10:08:20.665Z,98114.34
2023-04-27T10:10:55.524Z,98108.34
2023-04-27T10:13:29.343Z,98115.78
2023-04-27T10:16:00.067Z,98125.34
2023-04-27T10:18:34.518Z,98123.81
2023-04-27T10:21:13.923Z,98123.50
2023-04-27T10:23:52.044Z,98114.59
2023-04-27T10:26:28.028Z,98111.59
2023-04-27T10:29:08.818Z,98118.97
2023-04-27T10:31:47.094Z,98111.31
2023-04-27T10:34:22.265Z,98107.75
2023-04-27T10:36:52.950Z,98106.50
2023-04-27T10:39:39.789Z,98111.41
2023-04-27T10:42:15.480Z,98104.09
2023-04-27T10:44:46.430Z,98108.84
2023-04-27T10:47:20.185Z,98103.00
2023-04-27T10:49:56.308Z,98101.72
2023-04-27T10:52:26.814Z,98105.47
2023-04-27T10:55:06.205Z,98101.59
2023-04-27T10:57:36.729Z,98105.66
2023-04-27T11:00:16.359Z,98102.69
2023-04-27T11:02:47.286Z,98092.91
2023-04-27T11:05:30.650Z,98097.13
2023-04-27T11:08:14.842Z,98093.91
2023-04-27T11:10:50.455Z,98086.59
2023-04-27T11:13:23.510Z,98095.22
2023-04-27T11:15:56.093Z,98088.19
2023-04-27T11:18:29.706Z,98095.88
2023-04-27T11:21:14.224Z,98094.63
2023-04-27T11:23:45.730Z,98095.94
2023-04-27T11:26:18.514Z,98107.31
2023-04-27T11:29:05.655Z,98106.53
2023-04-27T11:31:49.141Z,98104.09
2023-04-27T11:34:23.208Z,98096.13
2023-04-27T11:37:18.325Z,98104.16
2023-04-27T11:39:50.073Z,98111.16
2023-04-27T11:42:25.346Z,98104.00
2023-04-27T11:44:58.211Z,98100.44
2023-04-27T11:47:32.913Z,98098.34
2023-04-27T11:50:05.288Z,98100.72
2023-04-27T11:52:43.011Z,98098.53
2023-04-27T11:55:16.454Z,98098.38
2023-04-27T11:57:48.299Z,98096.91
2023-04-27T12:00:23.215Z,98112.09
2023-04-27T12:02:54.283Z,98117.81
2023-04-27T12:05:25.432Z,98110.22
2023-04-27T12:08:01.254Z,98095.25
2023-04-27T12:10:31.976Z,98112.22
2023-04-27T12:13:07.882Z,98103.91
2023-04-27T12:15:39.218Z,98098.72
2023-04-27T12:18:12.758Z,98089.38
2023-04-27T12:20:45.037Z,98103.00
2023-04-27T12:23:20.876Z,98106.59
2023-04-27T12:25:51.529Z,98099.31
2023-04-27T12:28:22.021Z,98111.66
2023-04-27T12:30:52.503Z,98110.13
2023-04-27T12:33:23.315Z,98104.50
2023-04-27T12:35:53.899Z,98107.34
2023-04-27T12:38:27.256Z,98096.53
2023-04-27T12:41:03.153Z,98088.53
2023-04-27T12:43:35.472Z,98083.97
2023-04-27T12:46:07.847Z,98094.66
2023-04-27T12:48:38.790Z,98093.88
2023-04-27T12:51:13.333Z,98082.97
2023-04-27T12:53:46.716Z,98085.28
2023-04-27T12:56:17.452Z,98082.53
2023-04-27T12:58:48.519Z,98084.66
2023-04-27T13:01:19.876Z,98081.84
2023-04-27T13:03:52.116Z,98078.25
2023-04-27T13:06:23.145Z,98078.09
2023-04-27T13:08:56.678Z,98079.94
2023-04-27T13:11:27.921Z,98083.19
2023-04-27T13:13:59.195Z,98081.66
2023-04-27T13:16:29.842Z,98085.47
2023-04-27T13:19:00.690Z,98081.97
2023-04-27T13:21:31.385Z,98077.44
2023-04-27T13:24:04.548Z,98071.91
2023-04-27T13:26:37.717Z,98072.69
2023-04-27T13:29:08.304Z,98065.94
2023-04-27T13:31:39.133Z,98072.38
2023-04-27T13:34:09.708Z,98071.66
2023-04-27T13:36:40.260Z,98070.16
2023-04-27T13:39:13.484Z,98070.94
2023-04-27T13:41:43.928Z,98063.84
2023-04-27T13:44:15.054Z,98063.97
2023-04-27T13:46:46.035Z,98069.09
2023-04-27T13:49:19.298Z,98051.03
2023-04-27T13:51:49.986Z,98054.56
2023-04-27T13:54:24.120Z,98058.50
2023-04-27T13:56:54.778Z,98059.41
2023-04-27T13:59:25.372Z,98056.66
2023-04-27T14:01:56.892Z,98052.69
2023-04-27T14:04:27.648Z,98054.44
2023-04-27T14:06:58.209Z,98046.81
2023-04-27T14:09:31.341Z,98043.09
2023-04-27T14:12:02.218Z,98045.22
2023-04-27T14:14:32.757Z,98045.56
2023-04-27T14:17:03.365Z,98043.03
2023-04-27T14:19:36.568Z,98037.06
2023-04-27T14:22:08.432Z,98036.84
2023-04-27T14:24:41.518Z,98040.63
2023-04-27T14:27:12.216Z,98035.72
2023-04-27T14:29:42.808Z,98038.56
2023-04-27T14:32:13.695Z,98033.59
2023-04-27T14:34:44.395Z,98031.50
2023-04-27T14:37:14.844Z,98026.66
2023-04-27T14:39:49.141Z,98024.00
2023-04-27T14:42:19.687Z,98030.13
2023-04-27T14:44:50.236Z,98044.19
2023-04-27T14:47:21.105Z,98042.28
2023-04-27T14:49:51.754Z,98046.13
2023-04-27T14:52:22.274Z,98039.78
2023-04-27T14:54:55.792Z,98042.69
2023-04-27T14:57:26.748Z,98038.84
2023-04-27T14:59:57.298Z,98035.84
2023-04-27T15:02:27.906Z,98037.25
2023-04-27T15:04:58.467Z,98034.91
2023-04-27T15:07:29.141Z,98036.94
2023-04-27T15:10:02.408Z,98042.66
2023-04-27T15:12:32.855Z,98041.72
2023-04-27T15:15:03.920Z,98039.84
2023-04-27T15:17:34.547Z,98037.72
2023-04-27T15:20:06.056Z,98035.47
2023-04-27T15:22:36.808Z,98046.06
2023-04-27T15:25:11.475Z,98041.31
2023-04-27T15:27:45.044Z,98034.88
2023-04-27T15:30:17.633Z,98050.69
2023-04-27T15:32:48.377Z,98059.31
2023-04-27T15:35:19.248Z,98045.16
2023-04-27T15:37:49.760Z,98045.56
2023-04-27T15:40:23.014Z,98042.44
2023-04-27T15:42:53.634Z,98037.31
2023-04-27T15:45:24.148Z,98034.53
2023-04-27T15:47:54.800Z,98029.56
2023-04-27T15:50:25.543Z,98035.34
2023-04-27T15:52:56.432Z,98029.13
2023-04-27T15:55:29.492Z,98040.94
2023-04-27T15:58:00.091Z,98035.38
2023-04-27T16:00:30.996Z,98027.25
2023-04-27T16:03:01.787Z,98025.38
2023-04-27T16:05:33.002Z,98031.09
2023-04-27T16:08:03.476Z,98026.03
2023-04-27T16:10:36.658Z,98029.88
2023-04-27T16:13:07.180Z,98027.38
2023-04-27T16:15:37.730Z,98024.84
2023-04-27T16:18:08.448Z,98023.06
2023-04-27T16:20:38.693Z,98022.53
2023-04-27T16:23:09.102Z,98016.94
2023-04-27T16:25:42.214Z,98016.63
2023-04-27T16:28:12.820Z,98019.66
2023-04-27T16:30:43.371Z,98016.13
2023-04-27T16:33:14.041Z,98012.53
2023-04-27T16:35:47.627Z,98015.47
2023-04-27T16:38:20.680Z,98021.72
2023-04-27T16:40:56.179Z,98013.00
2023-04-27T16:43:26.972Z,98015.25
2023-04-27T16:45:57.581Z,98022.00
2023-04-27T16:48:28.588Z,98013.09
2023-04-27T16:50:59.159Z,98016.84
2023-04-27T16:53:29.674Z,98021.63
2023-04-27T16:56:04.134Z,98026.09
2023-04-27T16:58:36.440Z,98027.28
2023-04-27T17:01:07.464Z,98024.09
2023-04-27T17:03:38.378Z,98018.41
2023-04-27T17:06:08.861Z,98018.31
2023-04-27T17:08:39.616Z,98017.00
2023-04-27T17:11:15.030Z,98026.06
2023-04-27T17:13:45.546Z,98030.06
2023-04-27T17:16:17.346Z,98029.28
2023-04-27T17:18:48.830Z,98026.88
2023-04-27T17:21:21.763Z,98024.59
2023-04-27T17:23:53.417Z,98023.13
2023-04-27T17:26:26.592Z,98025.28
2023-04-27T17:29:00.195Z,98023.56
2023-04-27T17:31:30.824Z,98036.84
2023-04-27T17:34:01.391Z,98034.94
2023-04-27T17:36:32.036Z,98033.88
2023-04-27T17:39:03.429Z,98036.09
2023-04-27T17:41:37.189Z,98033.31
2023-04-27T17:44:08.304Z,98033.91
2023-04-27T17:46:40.210Z,98032.97
2023-04-27T17:49:10.773Z,98036.91
2023-04-27T17:51:41.680Z,98039.69
2023-04-27T17:54:12.544Z,98043.31
2023-04-27T17:56:45.756Z,98044.25
2023-04-27T17:59:16.770Z,98046.09
2023-04-27T18:01:47.925Z,98044.78
2023-04-27T18:04:18.752Z,98036.81
2023-04-27T18:06:49.378Z,98034.13
2023-04-27T18:09:19.914Z,98042.69
2023-04-27T18:11:53.183Z,98042.69
2023-04-27T18:14:23.812Z,98045.66
2023-04-27T18:16:55.116Z,98049.28
2023-04-27T18:19:26.116Z,98051.78
2023-04-27T18:21:56.595Z,98055.38
2023-04-27T18:24:27.655Z,98049.56
2023-04-27T18:27:01.008Z,98061.13
2023-04-27T18:29:31.859Z,98065.13
2023-04-27T18:32:05.879Z,98073.94
2023-04-27T18:34:36.976Z,98069.63
2023-04-27T18:37:07.139Z,98073.28
2023-04-27T18:39:37.575Z,98078.31
2023-04-27T18:42:10.864Z,98079.94
2023-04-27T18:44:41.454Z,98078.69
2023-04-27T18:47:13.966Z,98080.03
2023-04-27T18:49:44.444Z,98085.72
2023-04-27T18:52:15.032Z,98075.53
2023-04-27T18:54:45.532Z,98076.66
2023-04-27T18:57:18.629Z,98084.28
2023-04-27T18:59:52.112Z,98090.81
2023-04-27T19:02:23.021Z,98094.75
2023-04-27T19:05:10.251Z,98096.00
2023-04-27T19:07:43.138Z,98093.31
2023-04-27T19:10:14.985Z,98092.34
2023-04-27T19:12:48.099Z,98092.03
2023-04-27T19:15:19.000Z,98101.19
2023-04-27T19:17:58.582Z,98113.38
2023-04-27T19:20:37.372Z,98105.06
2023-04-27T19:23:09.708Z,98104.19
2023-04-27T19:25:40.660Z,98102.53
2023-04-27T19:28:13.889Z,98099.25
2023-04-27T19:30:44.311Z,98105.75
2023-04-27T19:33:14.986Z,98101.13
2023-04-27T19:35:45.806Z,98092.69
2023-04-27T19:38:16.409Z,98090.84
2023-04-27T19:40:47.180Z,98093.78
2023-04-27T19:43:21.167Z,98074.56
2023-04-27T19:45:51.836Z,98079.03
2023-04-27T19:48:22.351Z,98085.50
2023-04-27T19:50:52.852Z,98083.38
2023-04-27T19:53:23.582Z,98082.59
2023-04-27T19:55:54.948Z,98087.53
2023-04-27T19:58:28.148Z,98077.38
2023-04-27T20:00:58.578Z,98076.00
2023-04-27T20:03:29.229Z,98087.53
2023-04-27T20:05:59.984Z,98082.47
2023-04-27T20:08:30.761Z,98083.41
2023-04-27T20:11:01.501Z,98087.25
2023-04-27T20:13:34.888Z,98082.66
2023-04-27T20:16:05.544Z,98080.81
2023-04-27T20:18:36.635Z,98077.00
2023-04-27T20:21:07.591Z,98074.03
2023-04-27T20:23:38.063Z,98076.97
2023-04-27T20:26:08.548Z,98072.38
2023-04-27T20:28:41.832Z,98068.09
2023-04-27T20:31:12.820Z,98069.75
2023-04-27T20:33:43.107Z,98070.38
2023-04-27T20:36:17.833Z,98067.78
2023-04-27T20:38:49.599Z,98066.25
2023-04-27T20:41:21.494Z,98066.69
2023-04-27T20:43:55.589Z,98064.69
2023-04-27T20:46:26.513Z,98063.94
2023-04-27T20:48:57.514Z,98056.56
2023-04-27T20:51:28.100Z,98061.94
2023-04-27T20:53:59.301Z,98056.88
2023-04-27T20:56:30.853Z,98061.03
2023-04-27T20:59:04.499Z,98055.19
2023-04-27T21:01:35.901Z,98057.03
2023-04-27T21:04:06.655Z,98056.69
2023-04-27T21:06:37.337Z,98054.41
2023-04-27T21:09:07.991Z,98048.25
2023-04-27T21:11:38.674Z,98033.66
2023-04-27T21:14:11.751Z,98038.56
2023-04-27T21:16:42.283Z,98041.97
2023-04-27T21:19:14.853Z,98031.50
2023-04-27T21:21:47.453Z,98029.19
2023-04-27T21:24:19.661Z,98026.44
2023-04-27T21:26:50.558Z,98024.91
2023-04-27T21:29:23.819Z,98020.13
2023-04-27T21:31:54.326Z,98026.44
2023-04-27T21:34:24.850Z,98028.13
2023-04-27T21:36:55.377Z,98024.72
2023-04-27T21:39:26.005Z,98035.44
2023-04-27T21:41:56.637Z,98027.47
2023-04-27T21:44:32.896Z,98025.47
2023-04-27T21:47:03.298Z,98019.19
2023-04-27T21:49:34.007Z,98018.13
2023-04-27T21:52:04.542Z,98020.56
2023-04-27T21:54:35.816Z,98014.72
2023-04-27T21:57:06.961Z,98011.94
2023-04-27T21:59:39.738Z,98005.38
2023-04-27T22:02:10.364Z,98010.25
2023-04-27T22:04:41.470Z,98016.72
2023-04-27T22:07:12.262Z,98001.03
2023-04-27T22:09:42.645Z,98017.63
2023-04-27T22:12:13.221Z,98010.84
2023-04-27T22:14:47.143Z,98008.56
2023-04-27T22:17:17.621Z,98006.09
2023-04-27T22:19:48.417Z,98014.72
2023-04-27T22:22:18.904Z,98008.88
2023-04-27T22:24:49.462Z,98013.94
2023-04-27T22:27:20.063Z,98013.19
2023-04-27T22:29:53.263Z,98019.03
2023-04-27T22:32:23.715Z,98010.09
2023-04-27T22:34:54.437Z,98016.72
2023-04-27T22:37:25.066Z,98019.16
2023-04-27T22:39:56.226Z,98016.84
2023-04-27T22:42:26.590Z,98015.31
2023-04-27T22:44:59.490Z,98017.00
2023-04-27T22:47:30.374Z,98009.03
2023-04-27T22:50:02.113Z,98011.78
2023-04-27T22:52:33.997Z,98014.84
2023-04-27T22:55:04.800Z,98012.72
2023-04-27T22:57:35.360Z,98003.22
2023-04-27T23:00:13.143Z,98011.19
2023-04-27T23:02:44.211Z,98008.56
2023-04-27T23:05:15.505Z,98007.16
2023-04-27T23:07:50.502Z,97990.28
2023-04-27T23:10:21.800Z,98004.56
2023-04-27T23:12:55.030Z,97996.41
2023-04-27T23:15:28.261Z,97985.06
2023-04-27T23:17:58.842Z,97986.28
2023-04-27T23:20:29.481Z,97980.13
2023-04-27T23:23:00.142Z,97978.59
2023-04-27T23:25:30.880Z,97971.69
2023-04-27T23:28:01.558Z,97976.28
2023-04-27T23:30:35.302Z,97970.00
2023-04-27T23:33:06.244Z,97970.28
2023-04-27T23:35:36.913Z,97977.78
2023-04-27T23:38:07.503Z,97966.44
2023-04-27T23:40:38.078Z,97973.69
2023-04-27T23:43:08.567Z,97971.66
2023-04-27T23:45:42.056Z,97961.38
2023-04-27T23:48:12.554Z,97965.06
2023-04-27T23:50:43.120Z,97960.75
2023-04-27T23:53:13.720Z,97955.25
2023-04-27T23:55:44.306Z,97955.09
2023-04-27T23:58:14.805Z,97942.94
